Private Wetterstation Sandau
Wetterdaten: Sonntag, 02.12.2012
Datum Zeit Temp. A. Feuchte A. Luftdruck Regen Wind Richtung Richtung Taupunkt Windchill
02.12.2012 00:01 1,6 C 90 % 1010,7 hPa 0,0 l/m 7,6 km/h (2 Bft) SO 135 0,1 C -0,7 C
02.12.2012 00:06 1,6 C 90 % 1010,7 hPa 0,0 l/m 6,1 km/h (2 Bft) S-SW 202 0,1 C -0,2 C
02.12.2012 00:11 1,6 C 90 % 1010,7 hPa 0,0 l/m 7,6 km/h (2 Bft) S-SO 157 0,1 C -0,7 C
02.12.2012 00:16 1,6 C 90 % 1010,7 hPa 0,0 l/m 3,6 km/h (1 Bft) S 180 0,1 C 1,6 C
02.12.2012 00:21 1,6 C 90 % 1010,5 hPa 0,0 l/m 5,8 km/h (2 Bft) SO 135 0,1 C -0,1 C
02.12.2012 00:26 1,6 C 90 % 1010,6 hPa 0,0 l/m 0,0 km/h (0 Bft) S 180 0,1 C 1,6 C
02.12.2012 00:31 1,5 C 90 % 1010,4 hPa 0,0 l/m 7,6 km/h (2 Bft) SW 225 0,0 C -0,9 C
02.12.2012 00:36 1,6 C 90 % 1010,3 hPa 0,0 l/m 7,6 km/h (2 Bft) S 180 0,1 C -0,7 C
02.12.2012 00:41 1,5 C 90 % 1010,2 hPa 0,0 l/m 7,2 km/h (2 Bft) SO 135 0,0 C -0,7 C
02.12.2012 00:46 1,6 C 90 % 1010,2 hPa 0,0 l/m 7,2 km/h (2 Bft) S 180 0,1 C -0,6 C
02.12.2012 00:51 1,6 C 90 % 1010,2 hPa 0,0 l/m 6,1 km/h (2 Bft) S 180 0,1 C -0,2 C
02.12.2012 00:56 1,6 C 90 % 1010,2 hPa 0,0 l/m 6,5 km/h (2 Bft) S-SO 157 0,1 C -0,4 C
02.12.2012 01:01 1,6 C 90 % 1010,2 hPa 0,0 l/m 5,0 km/h (1 Bft) S-SW 202 0,1 C 0,2 C
02.12.2012 01:06 1,6 C 90 % 1010,2 hPa 0,0 l/m 9,0 km/h (2 Bft) S-SW 202 0,1 C -1,1 C
02.12.2012 01:11 1,5 C 90 % 1010,1 hPa 0,0 l/m 4,7 km/h (1 Bft) S-SO 157 0,0 C 0,2 C
02.12.2012 01:16 1,5 C 90 % 1010,0 hPa 0,0 l/m 7,2 km/h (2 Bft) S-SO 157 0,0 C -0,7 C
02.12.2012 01:21 1,4 C 90 % 1009,9 hPa 0,0 l/m 4,3 km/h (1 Bft) S-SW 202 -0,1 C 1,4 C
02.12.2012 01:26 1,3 C 90 % 1010,0 hPa 0,0 l/m 5,8 km/h (2 Bft) S-SW 202 -0,2 C -0,5 C
02.12.2012 01:31 1,3 C 90 % 1010,0 hPa 0,0 l/m 3,2 km/h (1 Bft) S-SW 202 -0,2 C 1,3 C
02.12.2012 01:36 1,3 C 90 % 1010,0 hPa 0,0 l/m 4,3 km/h (1 Bft) S 180 -0,2 C 1,3 C
02.12.2012 01:41 1,3 C 90 % 1009,9 hPa 0,0 l/m 5,4 km/h (1 Bft) S-SO 157 -0,2 C -0,3 C
02.12.2012 01:46 1,3 C 90 % 1010,0 hPa 0,0 l/m 3,6 km/h (1 Bft) S-SO 157 -0,2 C 1,3 C
02.12.2012 01:51 1,3 C 90 % 1009,9 hPa 0,0 l/m 2,2 km/h (1 Bft) SO 135 -0,2 C 1,3 C
02.12.2012 01:56 1,3 C 90 % 1009,9 hPa 0,0 l/m 5,8 km/h (2 Bft) S-SO 157 -0,2 C -0,5 C
02.12.2012 02:01 1,3 C 90 % 1009,8 hPa 0,0 l/m 5,8 km/h (2 Bft) S-SW 202 -0,2 C -0,5 C
02.12.2012 02:06 1,3 C 89 % 1009,7 hPa 0,0 l/m 4,3 km/h (1 Bft) S-SW 202 -0,3 C 1,3 C
02.12.2012 02:11 1,2 C 89 % 1009,7 hPa 0,0 l/m 5,8 km/h (2 Bft) W-SW 247 -0,4 C -0,6 C
02.12.2012 02:16 1,1 C 89 % 1009,7 hPa 0,0 l/m 13,0 km/h (3 Bft) S-SW 202 -0,5 C -2,7 C
02.12.2012 02:21 1,1 C 89 % 1009,7 hPa 0,0 l/m 8,3 km/h (2 Bft) S 180 -0,5 C -1,5 C
02.12.2012 02:26 1,1 C 89 % 1009,7 hPa 0,0 l/m 8,6 km/h (2 Bft) SW 225 -0,5 C -1,6 C
02.12.2012 02:31 1,1 C 89 % 1009,6 hPa 0,0 l/m 8,6 km/h (2 Bft) S-SO 157 -0,5 C -1,6 C
02.12.2012 02:36 1,1 C 89 % 1009,6 hPa 0,0 l/m 4,3 km/h (1 Bft) S-SW 202 -0,5 C 1,1 C
02.12.2012 02:41 1,1 C 89 % 1009,5 hPa 0,0 l/m 15,5 km/h (3 Bft) SW 225 -0,5 C -3,1 C
02.12.2012 02:46 1,1 C 89 % 1009,4 hPa 0,0 l/m 7,2 km/h (2 Bft) S-SO 157 -0,5 C -1,2 C
02.12.2012 02:51 1,0 C 89 % 1009,4 hPa 0,0 l/m 10,8 km/h (2 Bft) S-SW 202 -0,6 C -2,3 C
02.12.2012 02:56 0,9 C 89 % 1009,5 hPa 0,0 l/m 6,5 km/h (2 Bft) S 180 -0,7 C -1,2 C
02.12.2012 03:01 0,9 C 89 % 1009,5 hPa 0,0 l/m 10,8 km/h (2 Bft) S 180 -0,7 C -2,4 C
02.12.2012 03:06 0,8 C 89 % 1009,3 hPa 0,0 l/m 9,4 km/h (2 Bft) S-SW 202 -0,8 C -2,2 C
02.12.2012 03:11 0,8 C 89 % 1009,3 hPa 0,0 l/m 6,8 km/h (2 Bft) S-SW 202 -0,8 C -1,4 C
02.12.2012 03:16 0,7 C 89 % 1009,1 hPa 0,0 l/m 8,6 km/h (2 Bft) S 180 -0,9 C -2,1 C
02.12.2012 03:21 0,6 C 89 % 1009,2 hPa 0,0 l/m 6,5 km/h (2 Bft) S-SO 157 -1,0 C -1,5 C
02.12.2012 03:26 0,6 C 89 % 1009,1 hPa 0,0 l/m 7,2 km/h (2 Bft) S-SO 157 -1,0 C -1,8 C
02.12.2012 03:31 0,5 C 89 % 1009,1 hPa 0,0 l/m 6,8 km/h (2 Bft) S-SW 202 -1,1 C -1,8 C
02.12.2012 03:36 0,5 C 89 % 1009,2 hPa 0,0 l/m 9,7 km/h (2 Bft) S-SW 202 -1,1 C -2,6 C
02.12.2012 03:41 0,4 C 89 % 1009,1 hPa 0,0 l/m 6,1 km/h (2 Bft) S 180 -1,2 C -1,6 C
02.12.2012 03:46 0,4 C 89 % 1008,9 hPa 0,0 l/m 3,6 km/h (1 Bft) S-SO 157 -1,2 C 0,4 C
02.12.2012 03:51 0,4 C 89 % 1008,9 hPa 0,0 l/m 10,4 km/h (2 Bft) SO 135 -1,2 C -2,9 C
02.12.2012 03:56 0,4 C 89 % 1009,0 hPa 0,0 l/m 4,0 km/h (1 Bft) O-SO 112 -1,2 C 0,4 C
02.12.2012 04:01 0,4 C 89 % 1008,9 hPa 0,0 l/m 5,0 km/h (1 Bft) S-SW 202 -1,2 C -1,1 C
02.12.2012 04:06 0,4 C 89 % 1008,8 hPa 0,0 l/m 6,1 km/h (2 Bft) S 180 -1,2 C -1,6 C
02.12.2012 04:11 0,4 C 89 % 1008,8 hPa 0,0 l/m 9,0 km/h (2 Bft) S-SW 202 -1,2 C -2,6 C
02.12.2012 04:16 0,4 C 89 % 1008,8 hPa 0,0 l/m 8,3 km/h (2 Bft) SO 135 -1,2 C -2,4 C
02.12.2012 04:21 0,4 C 89 % 1008,7 hPa 0,0 l/m 10,4 km/h (2 Bft) S-SW 202 -1,2 C -2,9 C
02.12.2012 04:26 0,4 C 89 % 1008,7 hPa 0,0 l/m 4,3 km/h (1 Bft) SO 135 -1,2 C 0,4 C
02.12.2012 04:31 0,4 C 89 % 1008,7 hPa 0,0 l/m 7,6 km/h (2 Bft) W-SW 247 -1,2 C -2,1 C
02.12.2012 04:36 0,4 C 89 % 1008,6 hPa 0,0 l/m 8,6 km/h (2 Bft) W-SW 247 -1,2 C -2,5 C
02.12.2012 04:41 0,4 C 89 % 1008,5 hPa 0,0 l/m 4,7 km/h (1 Bft) O 90 -1,2 C -1,0 C
02.12.2012 04:46 0,4 C 89 % 1008,6 hPa 0,0 l/m 12,6 km/h (3 Bft) S-SO 157 -1,2 C -3,4 C
02.12.2012 04:51 0,5 C 89 % 1008,6 hPa 0,0 l/m 13,0 km/h (3 Bft) S 180 -1,1 C -3,4 C
02.12.2012 04:56 0,5 C 88 % 1008,6 hPa 0,0 l/m 6,1 km/h (2 Bft) S-SW 202 -1,3 C -1,5 C
02.12.2012 05:01 0,5 C 88 % 1008,6 hPa 0,0 l/m 5,8 km/h (2 Bft) S 180 -1,3 C -1,4 C
02.12.2012 05:06 0,6 C 88 % 1008,6 hPa 0,0 l/m 7,6 km/h (2 Bft) S 180 -1,2 C -1,9 C
02.12.2012 05:11 0,6 C 88 % 1008,7 hPa 0,0 l/m 16,2 km/h (3 Bft) W-SW 247 -1,2 C -3,9 C
02.12.2012 05:16 0,6 C 88 % 1008,6 hPa 0,0 l/m 13,0 km/h (3 Bft) S-SW 202 -1,2 C -3,3 C
02.12.2012 05:21 0,6 C 87 % 1008,6 hPa 0,0 l/m 8,6 km/h (2 Bft) S-SO 157 -1,3 C -2,2 C
02.12.2012 05:26 0,6 C 87 % 1008,5 hPa 0,0 l/m 11,2 km/h (2 Bft) S-SW 202 -1,3 C -2,9 C
02.12.2012 05:31 0,7 C 87 % 1008,7 hPa 0,0 l/m 4,0 km/h (1 Bft) S-SW 202 -1,2 C 0,7 C
02.12.2012 05:36 0,7 C 87 % 1008,5 hPa 0,0 l/m 12,6 km/h (3 Bft) SW 225 -1,2 C -3,1 C
02.12.2012 05:41 0,7 C 87 % 1008,5 hPa 0,0 l/m 4,3 km/h (1 Bft) S-SW 202 -1,2 C 0,7 C
02.12.2012 05:46 0,7 C 87 % 1008,5 hPa 0,0 l/m 10,1 km/h (2 Bft) S 180 -1,2 C -2,5 C
02.12.2012 05:51 0,6 C 87 % 1008,5 hPa 0,0 l/m 5,4 km/h (1 Bft) SW 225 -1,3 C -1,1 C
02.12.2012 05:56 0,6 C 87 % 1008,5 hPa 0,0 l/m 19,8 km/h (3 Bft) W-SW 247 -1,3 C -4,5 C
02.12.2012 06:01 0,6 C 87 % 1008,5 hPa 0,0 l/m 17,6 km/h (3 Bft) S 180 -1,3 C -4,1 C
02.12.2012 06:06 0,5 C 87 % 1008,5 hPa 0,0 l/m 11,2 km/h (2 Bft) SW 225 -1,4 C -3,0 C
02.12.2012 06:11 0,5 C 87 % 1008,5 hPa 0,0 l/m 14,4 km/h (3 Bft) W-SW 247 -1,4 C -3,7 C
02.12.2012 06:16 0,6 C 87 % 1008,4 hPa 0,0 l/m 7,6 km/h (2 Bft) SW 225 -1,3 C -1,9 C
02.12.2012 06:21 0,6 C 87 % 1008,5 hPa 0,0 l/m 4,7 km/h (1 Bft) S-SW 202 -1,3 C -0,8 C
02.12.2012 06:26 0,6 C 87 % 1008,5 hPa 0,0 l/m 5,0 km/h (1 Bft) S 180 -1,3 C -0,9 C
02.12.2012 06:31 0,6 C 87 % 1008,4 hPa 0,0 l/m 6,5 km/h (2 Bft) S-SW 202 -1,3 C -1,5 C
02.12.2012 06:36 0,6 C 87 % 1008,2 hPa 0,0 l/m 14,0 km/h (3 Bft) SW 225 -1,3 C -3,5 C
02.12.2012 06:41 0,6 C 87 % 1008,3 hPa 0,0 l/m 16,6 km/h (3 Bft) S-SW 202 -1,3 C -4,0 C
02.12.2012 06:46 0,6 C 87 % 1008,3 hPa 0,0 l/m 6,1 km/h (2 Bft) S-SW 202 -1,3 C -1,4 C
02.12.2012 06:51 0,6 C 87 % 1008,3 hPa 0,0 l/m 11,9 km/h (2 Bft) SW 225 -1,3 C -3,1 C
02.12.2012 06:56 0,5 C 87 % 1008,3 hPa 0,0 l/m 8,3 km/h (2 Bft) W-SW 247 -1,4 C -2,2 C
02.12.2012 07:01 0,5 C 87 % 1008,3 hPa 0,0 l/m 10,1 km/h (2 Bft) S 180 -1,4 C -2,7 C
02.12.2012 07:06 0,4 C 87 % 1008,3 hPa 0,0 l/m 16,6 km/h (3 Bft) S-SW 202 -1,5 C -4,2 C
02.12.2012 07:11 0,4 C 88 % 1008,4 hPa 0,0 l/m 4,7 km/h (1 Bft) SW 225 -1,3 C -1,0 C
02.12.2012 07:16 0,3 C 88 % 1008,4 hPa 0,0 l/m 8,3 km/h (2 Bft) SW 225 -1,4 C -2,5 C
02.12.2012 07:21 0,2 C 88 % 1008,4 hPa 0,0 l/m 5,8 km/h (2 Bft) S-SW 202 -1,5 C -1,7 C
02.12.2012 07:26 0,2 C 88 % 1008,5 hPa 0,0 l/m 9,4 km/h (2 Bft) S 180 -1,5 C -2,9 C
02.12.2012 07:31 0,1 C 88 % 1008,5 hPa 0,0 l/m 21,6 km/h (4 Bft) S-SW 202 -1,6 C -5,3 C
02.12.2012 07:36 0,1 C 89 % 1008,5 hPa 0,0 l/m 9,7 km/h (2 Bft) W-SW 247 -1,5 C -3,1 C
02.12.2012 07:41 0,1 C 89 % 1008,4 hPa 0,0 l/m 11,9 km/h (2 Bft) S 180 -1,5 C -3,7 C
02.12.2012 07:46 0,1 C 89 % 1008,4 hPa 0,0 l/m 6,1 km/h (2 Bft) S-SO 157 -1,5 C -1,9 C
02.12.2012 07:51 0,1 C 89 % 1008,3 hPa 0,0 l/m 6,5 km/h (2 Bft) SO 135 -1,5 C -2,1 C
02.12.2012 07:56 0,1 C 89 % 1008,4 hPa 0,0 l/m 6,1 km/h (2 Bft) S 180 -1,5 C -1,9 C
02.12.2012 08:01 0,1 C 89 % 1008,5 hPa 0,0 l/m 7,2 km/h (2 Bft) S 180 -1,5 C -2,4 C
02.12.2012 08:06 0,1 C 89 % 1008,5 hPa 0,0 l/m 5,8 km/h (2 Bft) S-SO 157 -1,5 C -1,8 C
02.12.2012 08:11 0,1 C 89 % 1008,7 hPa 0,0 l/m 10,4 km/h (2 Bft) SO 135 -1,5 C -3,3 C
02.12.2012 08:16 0,0 C 89 % 1008,6 hPa 0,0 l/m 6,1 km/h (2 Bft) S 180 -1,6 C -2,1 C
02.12.2012 08:21 0,0 C 89 % 1008,7 hPa 0,0 l/m 2,2 km/h (1 Bft) S 180 -1,6 C 0,0 C
02.12.2012 08:26 0,1 C 90 % 1008,8 hPa 0,0 l/m 5,4 km/h (1 Bft) S 180 -1,3 C -1,7 C
02.12.2012 08:31 0,1 C 90 % 1008,8 hPa 0,0 l/m 4,0 km/h (1 Bft) S 180 -1,3 C 0,1 C
02.12.2012 08:36 0,1 C 90 % 1008,8 hPa 0,0 l/m 4,7 km/h (1 Bft) S-SW 202 -1,3 C -1,3 C
02.12.2012 08:41 0,1 C 90 % 1008,8 hPa 0,0 l/m 7,2 km/h (2 Bft) S-SO 157 -1,3 C -2,4 C
02.12.2012 08:46 0,1 C 90 % 1008,8 hPa 0,0 l/m 11,2 km/h (2 Bft) SO 135 -1,3 C -3,5 C
02.12.2012 08:51 0,1 C 90 % 1008,8 hPa 0,0 l/m 2,5 km/h (1 Bft) O-SO 112 -1,3 C 0,1 C
02.12.2012 08:56 0,1 C 90 % 1008,8 hPa 0,0 l/m 6,5 km/h (2 Bft) S-SO 157 -1,3 C -2,1 C
02.12.2012 09:01 0,1 C 90 % 1008,8 hPa 0,0 l/m 9,0 km/h (2 Bft) S-SW 202 -1,3 C -2,9 C
02.12.2012 09:06 0,1 C 90 % 1008,9 hPa 0,0 l/m 6,1 km/h (2 Bft) S-SO 157 -1,3 C -1,9 C
02.12.2012 09:11 0,1 C 90 % 1008,9 hPa 0,0 l/m 8,6 km/h (2 Bft) SW 225 -1,3 C -2,8 C
02.12.2012 09:16 0,1 C 90 % 1008,9 hPa 0,0 l/m 5,8 km/h (2 Bft) SO 135 -1,3 C -1,8 C
02.12.2012 09:21 0,1 C 90 % 1009,0 hPa 0,0 l/m 8,6 km/h (2 Bft) SO 135 -1,3 C -2,8 C
02.12.2012 09:26 0,1 C 90 % 1008,9 hPa 0,0 l/m 5,0 km/h (1 Bft) S-SW 202 -1,3 C -1,5 C
02.12.2012 09:31 0,1 C 90 % 1009,0 hPa 0,0 l/m 4,0 km/h (1 Bft) SW 225 -1,3 C 0,1 C
02.12.2012 09:36 0,1 C 90 % 1009,1 hPa 0,0 l/m 6,5 km/h (2 Bft) SO 135 -1,3 C -2,1 C
02.12.2012 09:41 0,1 C 91 % 1009,0 hPa 0,0 l/m 7,9 km/h (2 Bft) S-SO 157 -1,2 C -2,6 C
02.12.2012 09:46 0,2 C 91 % 1009,2 hPa 0,0 l/m 6,8 km/h (2 Bft) SW 225 -1,1 C -2,1 C
02.12.2012 09:51 0,2 C 91 % 1009,1 hPa 0,0 l/m 5,0 km/h (1 Bft) SO 135 -1,1 C -1,4 C
02.12.2012 09:56 0,3 C 91 % 1009,1 hPa 0,0 l/m 6,1 km/h (2 Bft) S-SO 157 -1,0 C -1,7 C
02.12.2012 10:01 0,3 C 91 % 1009,1 hPa 0,0 l/m 5,0 km/h (1 Bft) SO 135 -1,0 C -1,2 C
02.12.2012 10:06 0,4 C 91 % 1009,1 hPa 0,0 l/m 4,0 km/h (1 Bft) SW 225 -0,9 C 0,4 C
02.12.2012 10:11 0,4 C 91 % 1009,0 hPa 0,0 l/m 5,4 km/h (1 Bft) S-SW 202 -0,9 C -1,3 C
02.12.2012 10:16 0,4 C 91 % 1009,0 hPa 0,0 l/m 5,0 km/h (1 Bft) SO 135 -0,9 C -1,1 C
02.12.2012 10:21 0,4 C 91 % 1009,1 hPa 0,0 l/m 3,6 km/h (1 Bft) S-SO 157 -0,9 C 0,4 C
02.12.2012 10:26 0,5 C 91 % 1009,2 hPa 0,0 l/m 4,3 km/h (1 Bft) S-SO 157 -0,8 C 0,5 C
02.12.2012 10:31 0,4 C 91 % 1009,2 hPa 0,0 l/m 6,1 km/h (2 Bft) S 180 -0,9 C -1,6 C
02.12.2012 10:36 0,4 C 91 % 1009,1 hPa 0,0 l/m 5,4 km/h (1 Bft) S-SO 157 -0,9 C -1,3 C
02.12.2012 10:41 0,5 C 91 % 1009,1 hPa 0,0 l/m 2,2 km/h (1 Bft) S 180 -0,8 C 0,5 C
02.12.2012 10:46 0,5 C 91 % 1009,2 hPa 0,0 l/m 4,7 km/h (1 Bft) S-SO 157 -0,8 C -0,9 C
02.12.2012 10:51 0,6 C 91 % 1009,1 hPa 0,0 l/m 9,7 km/h (2 Bft) S-SO 157 -0,7 C -2,5 C
02.12.2012 10:56 0,6 C 91 % 1009,1 hPa 0,0 l/m 0,0 km/h (0 Bft) S 180 -0,7 C 0,6 C
02.12.2012 11:01 0,6 C 91 % 1009,2 hPa 0,0 l/m 1,4 km/h (1 Bft) S 180 -0,7 C 0,6 C
02.12.2012 11:06 0,7 C 91 % 1009,1 hPa 0,0 l/m 0,0 km/h (0 Bft) S-SO 157 -0,6 C 0,7 C
02.12.2012 11:11 0,8 C 90 % 1009,1 hPa 0,0 l/m 6,1 km/h (2 Bft) SO 135 -0,6 C -1,1 C
02.12.2012 11:16 0,8 C 90 % 1009,2 hPa 0,0 l/m 2,9 km/h (1 Bft) SO 135 -0,6 C 0,8 C
02.12.2012 11:21 0,8 C 90 % 1009,1 hPa 0,0 l/m 4,0 km/h (1 Bft) SO 135 -0,6 C 0,8 C
02.12.2012 11:26 0,9 C 90 % 1009,1 hPa 0,0 l/m 4,7 km/h (1 Bft) S-SO 157 -0,6 C -0,4 C
02.12.2012 11:31 0,8 C 90 % 1009,0 hPa 0,0 l/m 3,6 km/h (1 Bft) SO 135 -0,6 C 0,8 C
02.12.2012 11:36 0,8 C 90 % 1009,1 hPa 0,0 l/m 5,4 km/h (1 Bft) S-SO 157 -0,6 C -0,9 C
02.12.2012 11:41 0,8 C 90 % 1009,0 hPa 0,0 l/m 6,8 km/h (2 Bft) SO 135 -0,6 C -1,4 C
02.12.2012 11:46 0,8 C 90 % 1009,1 hPa 0,0 l/m 3,2 km/h (1 Bft) S-SW 202 -0,6 C 0,8 C
02.12.2012 11:51 0,8 C 90 % 1009,0 hPa 0,0 l/m 7,6 km/h (2 Bft) SO 135 -0,6 C -1,7 C
02.12.2012 11:56 0,7 C 90 % 1008,9 hPa 0,0 l/m 3,6 km/h (1 Bft) S-SW 202 -0,7 C 0,7 C
02.12.2012 12:01 0,8 C 90 % 1009,0 hPa 0,0 l/m 0,0 km/h (0 Bft) S-SO 157 -0,6 C 0,8 C
02.12.2012 12:06 0,8 C 90 % 1008,9 hPa 0,0 l/m 2,5 km/h (1 Bft) S-SO 157 -0,6 C 0,8 C
02.12.2012 12:11 0,8 C 90 % 1009,1 hPa 0,0 l/m 7,6 km/h (2 Bft) SO 135 -0,6 C -1,7 C
02.12.2012 12:16 0,8 C 90 % 1008,9 hPa 0,0 l/m 0,0 km/h (0 Bft) S 180 -0,6 C 0,8 C
02.12.2012 12:21 0,8 C 90 % 1008,9 hPa 0,0 l/m 5,0 km/h (1 Bft) S-SO 157 -0,6 C -0,7 C
02.12.2012 12:26 0,9 C 90 % 1008,8 hPa 0,0 l/m 2,2 km/h (1 Bft) S-SO 157 -0,6 C 0,9 C
02.12.2012 12:31 0,9 C 90 % 1008,6 hPa 0,0 l/m 4,0 km/h (1 Bft) S-SO 157 -0,6 C 0,9 C
02.12.2012 12:36 0,9 C 90 % 1008,7 hPa 0,0 l/m 4,7 km/h (1 Bft) SO 135 -0,6 C -0,4 C
02.12.2012 12:41 0,9 C 90 % 1008,7 hPa 0,0 l/m 1,1 km/h (1 Bft) S-SW 202 -0,6 C 0,9 C
02.12.2012 12:46 0,9 C 90 % 1008,7 hPa 0,0 l/m 3,6 km/h (1 Bft) O-SO 112 -0,6 C 0,9 C
02.12.2012 12:51 0,9 C 90 % 1008,8 hPa 0,0 l/m 2,9 km/h (1 Bft) S-SO 157 -0,6 C 0,9 C
02.12.2012 12:56 0,9 C 90 % 1008,8 hPa 0,0 l/m 5,0 km/h (1 Bft) S-SO 157 -0,6 C -0,6 C
02.12.2012 13:01 0,9 C 89 % 1008,7 hPa 0,0 l/m 2,5 km/h (1 Bft) S-SO 157 -0,7 C 0,9 C
02.12.2012 13:06 0,9 C 89 % 1008,9 hPa 0,0 l/m 0,0 km/h (0 Bft) S-SO 157 -0,7 C 0,9 C
02.12.2012 13:11 0,9 C 89 % 1008,8 hPa 0,0 l/m 2,9 km/h (1 Bft) SO 135 -0,7 C 0,9 C
02.12.2012 13:16 1,0 C 89 % 1008,7 hPa 0,0 l/m 1,8 km/h (1 Bft) S-SO 157 -0,6 C 1,0 C
02.12.2012 13:21 1,0 C 89 % 1008,9 hPa 0,0 l/m 2,9 km/h (1 Bft) SO 135 -0,6 C 1,0 C
02.12.2012 13:26 1,0 C 89 % 1008,8 hPa 0,0 l/m 2,5 km/h (1 Bft) SO 135 -0,6 C 1,0 C
02.12.2012 13:31 1,0 C 89 % 1009,0 hPa 0,0 l/m 0,0 km/h (0 Bft) SO 135 -0,6 C 1,0 C
02.12.2012 13:36 1,1 C 89 % 1008,8 hPa 0,0 l/m 5,8 km/h (2 Bft) S-SO 157 -0,5 C -0,7 C
02.12.2012 13:41 1,1 C 89 % 1008,9 hPa 0,0 l/m 0,0 km/h (0 Bft) SO 135 -0,5 C 1,1 C
02.12.2012 13:46 1,1 C 89 % 1008,9 hPa 0,0 l/m 2,2 km/h (1 Bft) SO 135 -0,5 C 1,1 C
02.12.2012 13:51 1,1 C 89 % 1008,8 hPa 0,0 l/m 0,0 km/h (0 Bft) SO 135 -0,5 C 1,1 C
02.12.2012 13:56 1,1 C 89 % 1008,9 hPa 0,0 l/m 3,6 km/h (1 Bft) SO 135 -0,5 C 1,1 C
02.12.2012 14:01 1,1 C 89 % 1008,8 hPa 0,0 l/m 6,5 km/h (2 Bft) SO 135 -0,5 C -0,9 C
02.12.2012 14:06 1,1 C 89 % 1008,7 hPa 0,0 l/m 2,5 km/h (1 Bft) SO 135 -0,5 C 1,1 C
02.12.2012 14:11 1,1 C 89 % 1008,7 hPa 0,0 l/m 0,0 km/h (0 Bft) S-SO 157 -0,5 C 1,1 C
02.12.2012 14:16 1,1 C 89 % 1008,8 hPa 0,0 l/m 1,4 km/h (1 Bft) S-SO 157 -0,5 C 1,1 C
02.12.2012 14:21 1,2 C 89 % 1008,8 hPa 0,0 l/m 2,2 km/h (1 Bft) SO 135 -0,4 C 1,2 C
02.12.2012 14:26 1,2 C 89 % 1008,8 hPa 0,0 l/m 3,6 km/h (1 Bft) SO 135 -0,4 C 1,2 C
02.12.2012 14:31 1,2 C 89 % 1008,8 hPa 0,0 l/m 0,0 km/h (0 Bft) SO 135 -0,4 C 1,2 C
02.12.2012 14:36 1,2 C 89 % 1008,9 hPa 0,0 l/m 2,2 km/h (1 Bft) SO 135 -0,4 C 1,2 C
02.12.2012 14:41 1,2 C 89 % 1008,9 hPa 0,0 l/m 2,2 km/h (1 Bft) SO 135 -0,4 C 1,2 C
02.12.2012 14:46 1,1 C 89 % 1008,9 hPa 0,0 l/m 0,0 km/h (0 Bft) SO 135 -0,5 C 1,1 C
02.12.2012 14:51 1,2 C 89 % 1008,8 hPa 0,0 l/m 0,0 km/h (0 Bft) SO 135 -0,4 C 1,2 C
02.12.2012 14:56 1,2 C 89 % 1008,9 hPa 0,0 l/m 1,4 km/h (1 Bft) SO 135 -0,4 C 1,2 C
02.12.2012 15:01 1,2 C 89 % 1008,9 hPa 0,0 l/m 1,8 km/h (1 Bft) O-SO 112 -0,4 C 1,2 C
02.12.2012 15:06 1,1 C 89 % 1008,9 hPa 0,0 l/m 1,1 km/h (1 Bft) SO 135 -0,5 C 1,1 C
02.12.2012 15:11 1,1 C 89 % 1009,1 hPa 0,0 l/m 1,1 km/h (1 Bft) SO 135 -0,5 C 1,1 C
02.12.2012 15:16 1,1 C 89 % 1009,1 hPa 0,0 l/m 0,0 km/h (0 Bft) SO 135 -0,5 C 1,1 C
02.12.2012 15:21 1,1 C 89 % 1009,1 hPa 0,0 l/m 2,2 km/h (1 Bft) S-SO 157 -0,5 C 1,1 C
02.12.2012 15:26 1,2 C 89 % 1009,2 hPa 0,0 l/m 0,0 km/h (0 Bft) S 180 -0,4 C 1,2 C
02.12.2012 15:31 1,1 C 89 % 1009,2 hPa 0,0 l/m 1,8 km/h (1 Bft) S 180 -0,5 C 1,1 C
02.12.2012 15:36 1,1 C 89 % 1009,2 hPa 0,0 l/m 1,4 km/h (1 Bft) S-SO 157 -0,5 C 1,1 C
02.12.2012 15:41 1,2 C 89 % 1009,3 hPa 0,0 l/m 0,0 km/h (0 Bft) SO 135 -0,4 C 1,2 C
02.12.2012 15:46 1,1 C 89 % 1009,4 hPa 0,0 l/m 0,0 km/h (0 Bft) SO 135 -0,5 C 1,1 C
02.12.2012 15:51 1,1 C 89 % 1009,3 hPa 0,0 l/m 0,0 km/h (0 Bft) SO 135 -0,5 C 1,1 C
02.12.2012 15:56 1,1 C 89 % 1009,3 hPa 0,0 l/m 0,0 km/h (0 Bft) SO 135 -0,5 C 1,1 C
02.12.2012 16:01 1,1 C 89 % 1009,4 hPa 0,0 l/m 0,0 km/h (0 Bft) SO 135 -0,5 C 1,1 C
02.12.2012 16:06 1,1 C 89 % 1009,4 hPa 0,0 l/m 0,0 km/h (0 Bft) SO 135 -0,5 C 1,1 C
02.12.2012 16:11 1,1 C 89 % 1009,7 hPa 0,0 l/m 0,0 km/h (0 Bft) SO 135 -0,5 C 1,1 C
02.12.2012 16:16 1,1 C 89 % 1009,8 hPa 0,0 l/m 0,0 km/h (0 Bft) SO 135 -0,5 C 1,1 C
02.12.2012 16:21 1,1 C 89 % 1009,7 hPa 0,0 l/m 0,0 km/h (0 Bft) SO 135 -0,5 C 1,1 C
02.12.2012 16:26 1,1 C 89 % 1009,8 hPa 0,0 l/m 0,0 km/h (0 Bft) SO 135 -0,5 C 1,1 C
02.12.2012 16:31 1,0 C 89 % 1009,5 hPa 0,0 l/m 0,0 km/h (0 Bft) SO 135 -0,6 C 1,0 C
02.12.2012 16:36 0,9 C 89 % 1009,7 hPa 0,0 l/m 0,0 km/h (0 Bft) SO 135 -0,7 C 0,9 C
02.12.2012 16:41 0,9 C 89 % 1009,7 hPa 0,0 l/m 0,0 km/h (0 Bft) SO 135 -0,7 C 0,9 C
02.12.2012 16:46 0,9 C 89 % 1009,7 hPa 0,0 l/m 0,0 km/h (0 Bft) SO 135 -0,7 C 0,9 C
02.12.2012 16:51 0,9 C 89 % 1009,9 hPa 0,0 l/m 1,4 km/h (1 Bft) SO 135 -0,7 C 0,9 C
02.12.2012 16:56 0,9 C 89 % 1009,9 hPa 0,0 l/m 0,0 km/h (0 Bft) SO 135 -0,7 C 0,9 C
02.12.2012 17:01 0,9 C 89 % 1009,8 hPa 0,0 l/m 0,0 km/h (0 Bft) SO 135 -0,7 C 0,9 C
02.12.2012 17:06 0,9 C 89 % 1009,9 hPa 0,0 l/m 1,1 km/h (1 Bft) SO 135 -0,7 C 0,9 C
02.12.2012 17:11 0,8 C 89 % 1009,9 hPa 0,0 l/m 2,5 km/h (1 Bft) O-SO 112 -0,8 C 0,8 C
02.12.2012 17:16 0,8 C 89 % 1009,9 hPa 0,0 l/m 0,0 km/h (0 Bft) O-SO 112 -0,8 C 0,8 C
02.12.2012 17:21 0,8 C 89 % 1010,1 hPa 0,0 l/m 0,0 km/h (0 Bft) O-SO 112 -0,8 C 0,8 C
02.12.2012 17:26 0,7 C 89 % 1009,9 hPa 0,0 l/m 0,0 km/h (0 Bft) O-SO 112 -0,9 C 0,7 C
02.12.2012 17:31 0,7 C 89 % 1010,0 hPa 0,0 l/m 1,1 km/h (1 Bft) O 90 -0,9 C 0,7 C
02.12.2012 17:36 0,6 C 90 % 1010,0 hPa 0,0 l/m 0,0 km/h (0 Bft) O 90 -0,8 C 0,6 C
02.12.2012 17:41 0,6 C 90 % 1010,0 hPa 0,0 l/m 0,0 km/h (0 Bft) O-NO 67 -0,8 C 0,6 C
02.12.2012 17:46 0,6 C 90 % 1010,0 hPa 0,0 l/m 1,4 km/h (1 Bft) O-NO 67 -0,8 C 0,6 C
02.12.2012 17:51 0,5 C 90 % 1010,2 hPa 0,0 l/m 0,0 km/h (0 Bft) O-NO 67 -0,9 C 0,5 C
02.12.2012 17:56 0,5 C 90 % 1010,1 hPa 0,0 l/m 0,0 km/h (0 Bft) O-NO 67 -0,9 C 0,5 C
02.12.2012 18:01 0,4 C 91 % 1010,2 hPa 0,0 l/m 0,0 km/h (0 Bft) O-NO 67 -0,9 C 0,4 C
02.12.2012 18:06 0,4 C 91 % 1010,2 hPa 0,0 l/m 0,0 km/h (0 Bft) O-NO 67 -0,9 C 0,4 C
02.12.2012 18:11 0,4 C 91 % 1010,2 hPa 0,0 l/m 0,0 km/h (0 Bft) O-NO 67 -0,9 C 0,4 C
02.12.2012 18:16 0,3 C 91 % 1010,4 hPa 0,0 l/m 0,0 km/h (0 Bft) O-NO 67 -1,0 C 0,3 C
02.12.2012 18:21 0,3 C 91 % 1010,4 hPa 0,0 l/m 0,0 km/h (0 Bft) O-NO 67 -1,0 C 0,3 C
02.12.2012 18:26 0,3 C 91 % 1010,4 hPa 0,0 l/m 0,0 km/h (0 Bft) O-NO 67 -1,0 C 0,3 C
02.12.2012 18:31 0,3 C 91 % 1010,3 hPa 0,0 l/m 0,0 km/h (0 Bft) O-NO 67 -1,0 C 0,3 C
02.12.2012 18:36 0,3 C 91 % 1010,5 hPa 0,0 l/m 0,0 km/h (0 Bft) O-NO 67 -1,0 C 0,3 C
02.12.2012 18:41 0,3 C 91 % 1010,6 hPa 0,0 l/m 0,0 km/h (0 Bft) O-NO 67 -1,0 C 0,3 C
02.12.2012 18:46 0,3 C 91 % 1010,6 hPa 0,0 l/m 0,0 km/h (0 Bft) O-NO 67 -1,0 C 0,3 C
02.12.2012 18:51 0,3 C 91 % 1010,6 hPa 0,0 l/m 0,0 km/h (0 Bft) O-NO 67 -1,0 C 0,3 C
02.12.2012 18:56 0,3 C 91 % 1010,6 hPa 0,0 l/m 0,0 km/h (0 Bft) O-NO 67 -1,0 C 0,3 C
02.12.2012 19:01 0,3 C 91 % 1010,7 hPa 0,0 l/m 0,0 km/h (0 Bft) O-NO 67 -1,0 C 0,3 C
02.12.2012 19:06 0,2 C 91 % 1010,8 hPa 0,0 l/m 0,0 km/h (0 Bft) O-NO 67 -1,1 C 0,2 C
02.12.2012 19:11 0,2 C 91 % 1010,7 hPa 0,0 l/m 0,0 km/h (0 Bft) O-NO 67 -1,1 C 0,2 C
02.12.2012 19:16 0,2 C 91 % 1010,8 hPa 0,0 l/m 0,0 km/h (0 Bft) O-NO 67 -1,1 C 0,2 C
02.12.2012 19:21 0,1 C 91 % 1011,0 hPa 0,0 l/m 0,0 km/h (0 Bft) O-NO 67 -1,2 C 0,1 C
02.12.2012 19:26 0,1 C 91 % 1011,0 hPa 0,0 l/m 0,0 km/h (0 Bft) O-NO 67 -1,2 C 0,1 C
02.12.2012 19:31 0,1 C 91 % 1011,0 hPa 0,0 l/m 0,0 km/h (0 Bft) O-NO 67 -1,2 C 0,1 C
02.12.2012 19:36 0,1 C 92 % 1011,0 hPa 0,0 l/m 0,0 km/h (0 Bft) O-NO 67 -1,0 C 0,1 C
02.12.2012 19:41 0,1 C 92 % 1011,0 hPa 0,0 l/m 0,0 km/h (0 Bft) O-NO 67 -1,0 C 0,1 C
02.12.2012 19:46 0,1 C 92 % 1010,9 hPa 0,0 l/m 0,0 km/h (0 Bft) O-NO 67 -1,0 C 0,1 C
02.12.2012 19:51 0,2 C 92 % 1011,0 hPa 0,0 l/m 0,0 km/h (0 Bft) O-NO 67 -0,9 C 0,2 C
02.12.2012 19:56 0,2 C 92 % 1011,0 hPa 0,0 l/m 0,0 km/h (0 Bft) O-NO 67 -0,9 C 0,2 C
02.12.2012 20:01 0,2 C 92 % 1011,1 hPa 0,0 l/m 0,0 km/h (0 Bft) O-NO 67 -0,9 C 0,2 C
02.12.2012 20:06 0,2 C 92 % 1011,1 hPa 0,0 l/m 0,0 km/h (0 Bft) O-NO 67 -0,9 C 0,2 C
02.12.2012 20:11 0,3 C 92 % 1011,1 hPa 0,0 l/m 0,0 km/h (0 Bft) O-NO 67 -0,8 C 0,3 C
02.12.2012 20:16 0,3 C 92 % 1011,3 hPa 0,0 l/m 0,0 km/h (0 Bft) O-NO 67 -0,8 C 0,3 C
02.12.2012 20:21 0,3 C 92 % 1011,3 hPa 0,0 l/m 0,0 km/h (0 Bft) O-NO 67 -0,8 C 0,3 C
02.12.2012 20:26 0,3 C 92 % 1011,4 hPa 0,0 l/m 0,0 km/h (0 Bft) O-NO 67 -0,8 C 0,3 C
02.12.2012 20:31 0,3 C 92 % 1011,5 hPa 0,0 l/m 0,0 km/h (0 Bft) O-NO 67 -0,8 C 0,3 C
02.12.2012 20:36 0,2 C 92 % 1011,5 hPa 0,0 l/m 0,0 km/h (0 Bft) O-NO 67 -0,9 C 0,2 C
02.12.2012 20:41 0,2 C 92 % 1011,5 hPa 0,0 l/m 0,0 km/h (0 Bft) O-NO 67 -0,9 C 0,2 C
02.12.2012 20:46 0,2 C 92 % 1011,6 hPa 0,0 l/m 0,0 km/h (0 Bft) O-NO 67 -0,9 C 0,2 C
02.12.2012 20:51 0,2 C 92 % 1011,6 hPa 0,0 l/m 0,0 km/h (0 Bft) O-NO 67 -0,9 C 0,2 C
02.12.2012 20:56 0,2 C 92 % 1011,7 hPa 0,0 l/m 0,0 km/h (0 Bft) O-NO 67 -0,9 C 0,2 C
02.12.2012 21:01 0,2 C 92 % 1011,6 hPa 0,0 l/m 0,0 km/h (0 Bft) O-NO 67 -0,9 C 0,2 C
02.12.2012 21:06 0,2 C 92 % 1011,6 hPa 0,0 l/m 0,0 km/h (0 Bft) O-NO 67 -0,9 C 0,2 C
02.12.2012 21:11 0,2 C 92 % 1011,7 hPa 0,0 l/m 0,0 km/h (0 Bft) O-NO 67 -0,9 C 0,2 C
02.12.2012 21:16 0,2 C 92 % 1011,7 hPa 0,0 l/m 0,0 km/h (0 Bft) NO 45 -0,9 C 0,2 C
02.12.2012 21:21 0,2 C 92 % 1011,7 hPa 0,0 l/m 0,0 km/h (0 Bft) NO 45 -0,9 C 0,2 C
02.12.2012 21:26 0,2 C 92 % 1011,9 hPa 0,0 l/m 0,0 km/h (0 Bft) NO 45 -0,9 C 0,2 C
02.12.2012 21:31 0,3 C 92 % 1011,8 hPa 0,0 l/m 0,0 km/h (0 Bft) NO 45 -0,8 C 0,3 C
02.12.2012 21:36 0,3 C 92 % 1011,9 hPa 0,0 l/m 0,0 km/h (0 Bft) NO 45 -0,8 C 0,3 C
02.12.2012 21:41 0,3 C 92 % 1011,9 hPa 0,0 l/m 0,0 km/h (0 Bft) NO 45 -0,8 C 0,3 C
02.12.2012 21:46 0,3 C 92 % 1012,0 hPa 0,0 l/m 0,0 km/h (0 Bft) NO 45 -0,8 C 0,3 C
02.12.2012 21:51 0,3 C 92 % 1012,0 hPa 0,0 l/m 0,0 km/h (0 Bft) NO 45 -0,8 C 0,3 C
02.12.2012 21:56 0,3 C 92 % 1012,0 hPa 0,0 l/m 0,0 km/h (0 Bft) NO 45 -0,8 C 0,3 C
02.12.2012 22:01 0,3 C 92 % 1012,0 hPa 0,0 l/m 0,0 km/h (0 Bft) N 360 -0,8 C 0,3 C
02.12.2012 22:06 0,3 C 92 % 1012,1 hPa 0,0 l/m 0,0 km/h (0 Bft) W-NW 292 -0,8 C 0,3 C
02.12.2012 22:11 0,3 C 92 % 1012,1 hPa 0,0 l/m 0,0 km/h (0 Bft) W-NW 292 -0,8 C 0,3 C
02.12.2012 22:16 0,3 C 92 % 1012,2 hPa 0,0 l/m 0,0 km/h (0 Bft) W-NW 292 -0,8 C 0,3 C
02.12.2012 22:21 0,4 C 92 % 1012,3 hPa 0,0 l/m 0,0 km/h (0 Bft) NW 315 -0,7 C 0,4 C
02.12.2012 22:26 0,4 C 92 % 1012,3 hPa 0,0 l/m 0,0 km/h (0 Bft) N-NW 337 -0,7 C 0,4 C
02.12.2012 22:31 0,4 C 92 % 1012,4 hPa 0,0 l/m 0,0 km/h (0 Bft) W-NW 292 -0,7 C 0,4 C
02.12.2012 22:36 0,4 C 92 % 1012,4 hPa 0,0 l/m 0,0 km/h (0 Bft) N 360 -0,7 C 0,4 C
02.12.2012 22:41 0,4 C 92 % 1012,5 hPa 0,0 l/m 0,0 km/h (0 Bft) N-NO 22 -0,7 C 0,4 C
02.12.2012 22:46 0,4 C 93 % 1012,4 hPa 0,0 l/m 0,0 km/h (0 Bft) N-NO 22 -0,6 C 0,4 C
02.12.2012 22:51 0,4 C 93 % 1012,6 hPa 0,0 l/m 0,0 km/h (0 Bft) N-NO 22 -0,6 C 0,4 C
02.12.2012 22:56 0,4 C 93 % 1012,5 hPa 0,0 l/m 0,0 km/h (0 Bft) N-NO 22 -0,6 C 0,4 C
02.12.2012 23:01 0,4 C 93 % 1012,6 hPa 0,0 l/m 0,0 km/h (0 Bft) N 360 -0,6 C 0,4 C
02.12.2012 23:06 0,4 C 93 % 1012,8 hPa 0,0 l/m 0,0 km/h (0 Bft) N-NO 22 -0,6 C 0,4 C
02.12.2012 23:11 0,4 C 93 % 1012,7 hPa 0,0 l/m 0,0 km/h (0 Bft) N 360 -0,6 C 0,4 C
02.12.2012 23:16 0,4 C 93 % 1012,8 hPa 0,0 l/m 0,0 km/h (0 Bft) N-NW 337 -0,6 C 0,4 C
02.12.2012 23:21 0,5 C 93 % 1012,8 hPa 0,0 l/m 0,0 km/h (0 Bft) N-NW 337 -0,5 C 0,5 C
02.12.2012 23:26 0,5 C 93 % 1012,8 hPa 0,0 l/m 0,0 km/h (0 Bft) N-NW 337 -0,5 C 0,5 C
02.12.2012 23:31 0,5 C 93 % 1012,9 hPa 0,0 l/m 0,0 km/h (0 Bft) NW 315 -0,5 C 0,5 C
02.12.2012 23:36 0,5 C 93 % 1013,0 hPa 0,0 l/m 1,4 km/h (1 Bft) W-NW 292 -0,5 C 0,5 C
02.12.2012 23:41 0,6 C 93 % 1013,0 hPa 0,0 l/m 0,0 km/h (0 Bft) NW 315 -0,4 C 0,6 C
02.12.2012 23:46 0,6 C 93 % 1012,9 hPa 0,0 l/m 3,2 km/h (1 Bft) N-NW 337 -0,4 C 0,6 C
02.12.2012 23:51 0,6 C 93 % 1013,0 hPa 0,0 l/m 2,2 km/h (1 Bft) NW 315 -0,4 C 0,6 C
02.12.2012 23:56 0,6 C 93 % 1013,2 hPa 0,0 l/m 2,2 km/h (1 Bft) N-NW 337 -0,4 C 0,6 C
_ Min-Zeit 08:16 05:21 06:36 - 00:26 - - 07:31 07:31
Minimum _ 0,0 C 87 % 1008,2 hPa - 0,0 km/h (0 Bft) - - -1,6 C -5,3 C
_ Max-Zeit 00:01 22:46 23:56 00:01 07:31 - - 00:01 00:16
Maximum _ 1,6 C 93 % 1013,2 hPa 0,0 l/m 21,6 km/h
S-SW (4 Bft)
- - 0,1 C 1,6 C
Durchschnitt _ 0,6 C 90 % 1009,8 hPa #0,0 l/m 4,0 km/h (1 Bft) SO - -0,8 C -0,4 C
(c) by David Heller